Native Dancer — WDH7934 — position and weather

sailwx.info

Track history (hours):
 
Tides and Currents Weather Stations Pressure Air Temp Water Temp Dewpoint Dewpoint Depression Visibility Wind Speed Wind Dir Waves Ship Positions

Native Dancer

Owner: Turn Services, LLC, New Orleans, LA. More information available from US FCC via Universal Licensing System and Coast Guard Vessel Documentation Center.

Last reported at 2017-Dec-15 06:19 UTC. Time now 2017-Dec-16 07:12 UTC.
Position N 29°46' W 090°07'.

Length 22 m; draft 3 m.

Type: Towing. MMSI: 367653030.

Date/timePositionNaut miles runAvg speedWind from/ knotsBaromVisibWave heightAir tempDewpointWater temp
2017-Dec-15 06:19N 29°46' W 090°07'1 3.2
2017-Dec-15 05:57N 29°45' W 090°08'2 3.6
2017-Dec-15 05:25N 29°43' W 090°09'11 3.2
2017-Dec-15 02:04N 29°38' W 090°20'6 3.4
2017-Dec-15 00:18N 29°33' W 090°24'16 2.8
2017-Dec-14 18:31N 29°37' W 090°42'0 0.3
2017-Dec-14 18:00N 29°37' W 090°42'0 0.1
2017-Dec-14 17:30N 29°37' W 090°42'0 0.1
2017-Dec-14 17:00N 29°37' W 090°42'1 2.3
2017-Dec-14 16:30N 29°36' W 090°43'0 0.2
2017-Dec-14 16:00N 29°36' W 090°43'0 0.0
2017-Dec-14 15:00N 29°36' W 090°43'0 0.0
2017-Dec-14 14:30N 29°36' W 090°43'0 0.0
2017-Dec-14 14:00N 29°36' W 090°43'0 0.0
2017-Dec-14 13:30N 29°36' W 090°43'0 0.0
2017-Dec-14 13:00N 29°36' W 090°43'0 0.0
2017-Dec-14 12:30N 29°36' W 090°43'0 0.0
2017-Dec-14 12:00N 29°36' W 090°43'0 0.0
2017-Dec-14 11:30N 29°36' W 090°43'0 0.0
2017-Dec-14 11:00N 29°36' W 090°43'0 0.0
2017-Dec-14 10:30N 29°36' W 090°43'0 0.0
2017-Dec-14 10:00N 29°36' W 090°43'0 0.0
2017-Dec-14 09:30N 29°36' W 090°43'0 0.0
2017-Dec-14 09:00N 29°36' W 090°43'0 0.0
2017-Dec-14 08:30N 29°36' W 090°43'0 0.0
2017-Dec-14 08:00N 29°36' W 090°43'0 0.0
2017-Dec-14 07:30N 29°36' W 090°43'0 0.0
2017-Dec-14 07:00N 29°36' W 090°43'0 0.0
2017-Dec-14 06:30N 29°36' W 090°43'0 0.0
2017-Dec-14 06:00N 29°36' W 090°43'0 0.0
2017-Dec-14 05:30N 29°36' W 090°43'0 0.0
2017-Dec-14 05:00N 29°36' W 090°43'0 0.0
2017-Dec-14 04:30N 29°36' W 090°43'0 0.0
2017-Dec-14 04:00N 29°36' W 090°43'0 0.0
2017-Dec-14 03:30N 29°36' W 090°43'0 0.0
2017-Dec-14 03:00N 29°36' W 090°43'0 0.0
2017-Dec-14 02:30N 29°36' W 090°43'0 0.0
2017-Dec-14 02:00N 29°36' W 090°43'0 0.0
2017-Dec-14 01:30N 29°36' W 090°43'0 0.0
2017-Dec-14 01:00N 29°36' W 090°43'0 0.0
2017-Dec-14 00:30N 29°36' W 090°43'0 0.0
2017-Dec-14 00:00N 29°36' W 090°43'0 0.0
2017-Dec-13 23:30N 29°36' W 090°43'0 0.0
2017-Dec-13 23:00N 29°36' W 090°43'0 0.0
2017-Dec-13 22:30N 29°36' W 090°43'0 0.0
2017-Dec-13 22:00N 29°36' W 090°43'0 0.0
2017-Dec-13 21:30N 29°36' W 090°43'0 0.0
2017-Dec-13 21:00N 29°36' W 090°43'0 0.0
2017-Dec-13 20:30N 29°36' W 090°43'0 0.0
2017-Dec-13 20:00N 29°36' W 090°43'0 0.0
2017-Dec-13 19:30N 29°36' W 090°43'0 0.0
2017-Dec-13 19:00N 29°36' W 090°43'0 0.0
2017-Dec-13 18:30N 29°36' W 090°43'0 0.0
2017-Dec-13 18:00N 29°36' W 090°43'0 0.0
2017-Dec-13 17:30N 29°36' W 090°43'0 0.0
2017-Dec-13 17:00N 29°36' W 090°43'0 0.0
2017-Dec-13 16:30N 29°36' W 090°43'0 0.0
2017-Dec-13 16:00N 29°36' W 090°43'0 0.0
2017-Dec-13 15:30N 29°36' W 090°43'0 0.0
2017-Dec-13 15:00N 29°36' W 090°43'0 0.0
2017-Dec-13 14:30N 29°36' W 090°43'0 0.0
2017-Dec-13 14:00N 29°36' W 090°43'0 0.0
2017-Dec-13 13:30N 29°36' W 090°43'0 0.0
2017-Dec-13 13:00N 29°36' W 090°43'0 0.0
2017-Dec-13 12:30N 29°36' W 090°43'0 0.0
2017-Dec-13 12:00N 29°36' W 090°43'0 0.0
2017-Dec-13 11:30N 29°36' W 090°43'0 0.0
2017-Dec-13 11:00N 29°36' W 090°43'0 0.0
2017-Dec-13 10:30N 29°36' W 090°43'0 0.0
2017-Dec-13 10:00N 29°36' W 090°43'0 0.0
2017-Dec-13 09:30N 29°36' W 090°43'0 0.0
2017-Dec-13 09:00N 29°36' W 090°43'0 0.0
2017-Dec-13 08:30N 29°36' W 090°43'0 0.0
2017-Dec-13 08:00N 29°36' W 090°43'0 0.1
2017-Dec-13 07:30N 29°36' W 090°43'0 0.2
2017-Dec-13 07:00N 29°36' W 090°43'0 0.0
2017-Dec-13 06:30N 29°36' W 090°43'0 0.0
2017-Dec-13 06:00N 29°36' W 090°43'0 0.0
2017-Dec-13 05:30N 29°36' W 090°43'0 0.0
2017-Dec-13 05:00N 29°36' W 090°43'0 0.0
2017-Dec-13 04:30N 29°36' W 090°43'0 0.0
2017-Dec-13 04:00N 29°36' W 090°43'0 0.0
2017-Dec-13 03:30N 29°36' W 090°43'0 0.0
2017-Dec-13 03:00N 29°36' W 090°43'0 0.0
2017-Dec-13 02:30N 29°36' W 090°43'0 0.0
2017-Dec-13 02:00N 29°36' W 090°43'1 2.3
2017-Dec-13 01:30N 29°35' W 090°43'2 3.6
2017-Dec-13 01:00N 29°34' W 090°45'2 4.5
2017-Dec-13 00:30N 29°32' W 090°46'3 4.9
2017-Dec-12 23:58N 29°32' W 090°49'10 0.2
2017-Dec-11 07:33N 29°37' W 090°59'0 4.4
2017-Dec-11 07:30N 29°37' W 090°59'2 4.5
2017-Dec-11 06:59N 29°35' W 090°58'2 4.6
2017-Dec-11 06:30N 29°34' W 090°56'3 4.8
2017-Dec-11 05:59N 29°33' W 090°53'2 4.6
2017-Dec-11 05:30N 29°32' W 090°51'2 4.8
2017-Dec-11 05:00N 29°32' W 090°48'2 4.2
2017-Dec-11 04:30N 29°33' W 090°45'2 4.1
2017-Dec-11 04:00N 29°34' W 090°44'2 4.2
2017-Dec-11 03:30N 29°36' W 090°43'1 2.5
2017-Dec-11 03:00N 29°37' W 090°42'0 0.1
2017-Dec-11 02:30N 29°37' W 090°42'0 0.2
2017-Dec-11 02:00N 29°37' W 090°41'0 0.0
2017-Dec-11 01:30N 29°37' W 090°41'0 0.0
2017-Dec-11 01:00N 29°37' W 090°41'1 3.0
2017-Dec-11 00:30N 29°36' W 090°40'2 4.7
2017-Dec-11 00:00N 29°35' W 090°38'2 3.6
2017-Dec-10 23:28N 29°35' W 090°35'  
Track history (hours):
 
Tides and Currents Weather Stations Pressure Air Temp Water Temp Dewpoint Dewpoint Depression Visibility Wind Speed Wind Dir Waves Ship Positions

Native Dancer

Owner: Turn Services, LLC, New Orleans, LA. More information available from US FCC via Universal Licensing System and Coast Guard Vessel Documentation Center.

Last reported at 2017-Dec-15 06:19 UTC. Time now 2017-Dec-16 07:12 UTC.
Position N 29°46' W 090°07'.

Length 22 m; draft 3 m.

Type: Towing. MMSI: 367653030.

Date/timePositionNaut miles runAvg speedWind from/ knotsBaromVisibWave heightAir tempDewpointWater temp
2017-Dec-15 06:19N 29°46' W 090°07'1 3.2
2017-Dec-15 05:57N 29°45' W 090°08'2 3.6
2017-Dec-15 05:25N 29°43' W 090°09'11 3.2
2017-Dec-15 02:04N 29°38' W 090°20'6 3.4
2017-Dec-15 00:18N 29°33' W 090°24'16 2.8
2017-Dec-14 18:31N 29°37' W 090°42'0 0.3
2017-Dec-14 18:00N 29°37' W 090°42'0 0.1
2017-Dec-14 17:30N 29°37' W 090°42'0 0.1
2017-Dec-14 17:00N 29°37' W 090°42'1 2.3
2017-Dec-14 16:30N 29°36' W 090°43'0 0.2
2017-Dec-14 16:00N 29°36' W 090°43'0 0.0
2017-Dec-14 15:00N 29°36' W 090°43'0 0.0
2017-Dec-14 14:30N 29°36' W 090°43'0 0.0
2017-Dec-14 14:00N 29°36' W 090°43'0 0.0
2017-Dec-14 13:30N 29°36' W 090°43'0 0.0
2017-Dec-14 13:00N 29°36' W 090°43'0 0.0
2017-Dec-14 12:30N 29°36' W 090°43'0 0.0
2017-Dec-14 12:00N 29°36' W 090°43'0 0.0
2017-Dec-14 11:30N 29°36' W 090°43'0 0.0
2017-Dec-14 11:00N 29°36' W 090°43'0 0.0
2017-Dec-14 10:30N 29°36' W 090°43'0 0.0
2017-Dec-14 10:00N 29°36' W 090°43'0 0.0
2017-Dec-14 09:30N 29°36' W 090°43'0 0.0
2017-Dec-14 09:00N 29°36' W 090°43'0 0.0
2017-Dec-14 08:30N 29°36' W 090°43'0 0.0
2017-Dec-14 08:00N 29°36' W 090°43'0 0.0
2017-Dec-14 07:30N 29°36' W 090°43'0 0.0
2017-Dec-14 07:00N 29°36' W 090°43'0 0.0
2017-Dec-14 06:30N 29°36' W 090°43'0 0.0
2017-Dec-14 06:00N 29°36' W 090°43'0 0.0
2017-Dec-14 05:30N 29°36' W 090°43'0 0.0
2017-Dec-14 05:00N 29°36' W 090°43'0 0.0
2017-Dec-14 04:30N 29°36' W 090°43'0 0.0
2017-Dec-14 04:00N 29°36' W 090°43'0 0.0
2017-Dec-14 03:30N 29°36' W 090°43'0 0.0
2017-Dec-14 03:00N 29°36' W 090°43'0 0.0
2017-Dec-14 02:30N 29°36' W 090°43'0 0.0
2017-Dec-14 02:00N 29°36' W 090°43'0 0.0
2017-Dec-14 01:30N 29°36' W 090°43'0 0.0
2017-Dec-14 01:00N 29°36' W 090°43'0 0.0
2017-Dec-14 00:30N 29°36' W 090°43'0 0.0
2017-Dec-14 00:00N 29°36' W 090°43'0 0.0
2017-Dec-13 23:30N 29°36' W 090°43'0 0.0
2017-Dec-13 23:00N 29°36' W 090°43'0 0.0
2017-Dec-13 22:30N 29°36' W 090°43'0 0.0
2017-Dec-13 22:00N 29°36' W 090°43'0 0.0
2017-Dec-13 21:30N 29°36' W 090°43'0 0.0
2017-Dec-13 21:00N 29°36' W 090°43'0 0.0
2017-Dec-13 20:30N 29°36' W 090°43'0 0.0
2017-Dec-13 20:00N 29°36' W 090°43'0 0.0
2017-Dec-13 19:30N 29°36' W 090°43'0 0.0
2017-Dec-13 19:00N 29°36' W 090°43'0 0.0
2017-Dec-13 18:30N 29°36' W 090°43'0 0.0
2017-Dec-13 18:00N 29°36' W 090°43'0 0.0
2017-Dec-13 17:30N 29°36' W 090°43'0 0.0
2017-Dec-13 17:00N 29°36' W 090°43'0 0.0
2017-Dec-13 16:30N 29°36' W 090°43'0 0.0
2017-Dec-13 16:00N 29°36' W 090°43'0 0.0
2017-Dec-13 15:30N 29°36' W 090°43'0 0.0
2017-Dec-13 15:00N 29°36' W 090°43'0 0.0
2017-Dec-13 14:30N 29°36' W 090°43'0 0.0
2017-Dec-13 14:00N 29°36' W 090°43'0 0.0
2017-Dec-13 13:30N 29°36' W 090°43'0 0.0
2017-Dec-13 13:00N 29°36' W 090°43'0 0.0
2017-Dec-13 12:30N 29°36' W 090°43'0 0.0
2017-Dec-13 12:00N 29°36' W 090°43'0 0.0
2017-Dec-13 11:30N 29°36' W 090°43'0 0.0
2017-Dec-13 11:00N 29°36' W 090°43'0 0.0
2017-Dec-13 10:30N 29°36' W 090°43'0 0.0
2017-Dec-13 10:00N 29°36' W 090°43'0 0.0
2017-Dec-13 09:30N 29°36' W 090°43'0 0.0
2017-Dec-13 09:00N 29°36' W 090°43'0 0.0
2017-Dec-13 08:30N 29°36' W 090°43'0 0.0
2017-Dec-13 08:00N 29°36' W 090°43'0 0.1
2017-Dec-13 07:30N 29°36' W 090°43'0 0.2
2017-Dec-13 07:00N 29°36' W 090°43'0 0.0
2017-Dec-13 06:30N 29°36' W 090°43'0 0.0
2017-Dec-13 06:00N 29°36' W 090°43'0 0.0
2017-Dec-13 05:30N 29°36' W 090°43'0 0.0
2017-Dec-13 05:00N 29°36' W 090°43'0 0.0
2017-Dec-13 04:30N 29°36' W 090°43'0 0.0
2017-Dec-13 04:00N 29°36' W 090°43'0 0.0
2017-Dec-13 03:30N 29°36' W 090°43'0 0.0
2017-Dec-13 03:00N 29°36' W 090°43'0 0.0
2017-Dec-13 02:30N 29°36' W 090°43'0 0.0
2017-Dec-13 02:00N 29°36' W 090°43'1 2.3
2017-Dec-13 01:30N 29°35' W 090°43'2 3.6
2017-Dec-13 01:00N 29°34' W 090°45'2 4.5
2017-Dec-13 00:30N 29°32' W 090°46'3 4.9
2017-Dec-12 23:58N 29°32' W 090°49'10 0.2
2017-Dec-11 07:33N 29°37' W 090°59'0 4.4
2017-Dec-11 07:30N 29°37' W 090°59'2 4.5
2017-Dec-11 06:59N 29°35' W 090°58'2 4.6
2017-Dec-11 06:30N 29°34' W 090°56'3 4.8
2017-Dec-11 05:59N 29°33' W 090°53'2 4.6
2017-Dec-11 05:30N 29°32' W 090°51'2 4.8
2017-Dec-11 05:00N 29°32' W 090°48'2 4.2
2017-Dec-11 04:30N 29°33' W 090°45'2 4.1
2017-Dec-11 04:00N 29°34' W 090°44'2 4.2
2017-Dec-11 03:30N 29°36' W 090°43'1 2.5
2017-Dec-11 03:00N 29°37' W 090°42'0 0.1
2017-Dec-11 02:30N 29°37' W 090°42'0 0.2
2017-Dec-11 02:00N 29°37' W 090°41'0 0.0
2017-Dec-11 01:30N 29°37' W 090°41'0 0.0
2017-Dec-11 01:00N 29°37' W 090°41'1 3.0
2017-Dec-11 00:30N 29°36' W 090°40'2 4.7
2017-Dec-11 00:00N 29°35' W 090°38'2 3.6
2017-Dec-10 23:28N 29°35' W 090°35'  

Dump ship's entire track history